Time;durP1;ratioP1;P1;durP2;ratioP2;P2;SDS_P1;SDS_P2;PMS_P1;PMS_P2;Temp;Humidity;BMP_temperature;BMP_pressure;BME280_temperature;BME280_humidity;BME280_pressure;Samples;Min_cycle;Max_cycle;Signal;HPM_P1;HPM_P2
2023/03/05 00:01:17;;;;;;;8.50;2.60;;;;;;;4.59;100.00;102284.44;5129753;27;20046;-36
2023/03/05 00:03:43;;;;;;;7.47;2.35;;;;;;;4.55;100.00;102271.50;5131538;27;20042;-35
2023/03/05 00:06:09;;;;;;;8.05;2.45;;;;;;;4.55;100.00;102276.88;5131241;27;20019;-36
2023/03/05 00:08:35;;;;;;;8.45;2.70;;;;;;;4.52;100.00;102279.84;5130851;27;20333;-36
2023/03/05 00:11:07;;;;;;;6.10;2.17;;;;;;;4.51;100.00;102275.50;5131165;27;20023;-36
2023/03/05 00:13:33;;;;;;;8.45;2.50;;;;;;;4.46;100.00;102267.09;5120790;27;20069;-35
2023/03/05 00:16:03;;;;;;;6.97;2.13;;;;;;;4.51;100.00;102270.13;5117340;28;20011;-35
2023/03/05 00:18:28;;;;;;;6.72;2.17;;;;;;;4.51;100.00;102275.50;5116887;28;20471;-35
2023/03/05 00:20:53;;;;;;;8.73;3.20;;;;;;;4.50;100.00;102271.13;5117729;28;20024;-36
2023/03/05 00:23:19;;;;;;;8.43;2.60;;;;;;;4.49;100.00;102266.75;5116513;28;20055;-36
2023/03/05 00:25:45;;;;;;;10.40;3.30;;;;;;;4.43;100.00;102256.66;5117140;28;20015;-36
2023/03/05 00:28:11;;;;;;;9.57;2.38;;;;;;;4.47;100.00;102263.41;5116706;28;20020;-36
2023/03/05 00:30:36;;;;;;;9.25;2.63;;;;;;;4.47;100.00;102266.06;5117067;28;20030;-36
2023/03/05 00:33:02;;;;;;;8.37;1.90;;;;;;;4.48;100.00;102257.03;5116718;28;20015;-36
2023/03/05 00:35:27;;;;;;;7.90;2.58;;;;;;;4.39;100.00;102254.31;5116707;27;20026;-36
2023/03/05 00:37:53;;;;;;;5.95;2.20;;;;;;;4.42;100.00;102247.78;5115891;28;20030;-36
2023/03/05 00:40:19;;;;;;;7.07;2.45;;;;;;;4.43;100.00;102254.00;5116667;28;20387;-36
2023/03/05 00:42:44;;;;;;;6.53;2.05;;;;;;;4.43;100.00;102254.00;5116499;28;20023;-36
2023/03/05 00:45:10;;;;;;;8.07;2.20;;;;;;;4.41;100.00;102248.81;5116500;28;20032;-36
2023/03/05 00:47:36;;;;;;;6.30;2.28;;;;;;;4.44;100.00;102247.63;5116434;28;20338;-36
2023/03/05 00:50:03;;;;;;;7.07;1.98;;;;;;;4.43;100.00;102251.31;5116410;28;20024;-36
2023/03/05 00:52:28;;;;;;;6.30;2.60;;;;;;;4.39;100.00;102246.28;5116172;27;20416;-36
2023/03/05 00:54:54;;;;;;;7.30;2.20;;;;;;;4.34;100.00;102237.00;5117185;28;20048;-36
2023/03/05 00:57:19;;;;;;;7.70;2.43;;;;;;;4.38;100.00;102239.22;5117085;28;20046;-36
2023/03/05 00:59:44;;;;;;;6.00;2.40;;;;;;;4.36;100.00;102246.59;5115967;28;20103;-36
2023/03/05 01:02:10;;;;;;;6.80;2.57;;;;;;;4.28;100.00;102225.09;5116126;28;20086;-36
2023/03/05 01:04:36;;;;;;;5.45;2.08;;;;;;;4.35;100.00;102236.03;5116413;28;20024;-36
2023/03/05 01:07:01;;;;;;;8.03;2.33;;;;;;;4.33;100.00;102232.66;5116568;28;20032;-36
2023/03/05 01:09:27;;;;;;;9.02;2.38;;;;;;;4.28;100.00;102227.78;5116894;28;20050;-36
2023/03/05 01:11:53;;;;;;;7.33;2.53;;;;;;;4.35;100.00;102233.38;5115679;28;20020;-35
2023/03/05 01:14:19;;;;;;;4.55;2.00;;;;;;;4.33;100.00;102222.78;5115954;28;20026;-35
2023/03/05 01:16:45;;;;;;;9.32;2.90;;;;;;;4.29;100.00;102224.09;5115886;28;20027;-35
2023/03/05 01:19:11;;;;;;;7.95;2.35;;;;;;;4.26;100.00;102223.59;5116192;28;20030;-35
2023/03/05 01:21:36;;;;;;;11.77;2.58;;;;;;;4.19;100.00;102201.91;5115655;28;20031;-35
2023/03/05 01:24:03;;;;;;;9.60;2.07;;;;;;;4.26;100.00;102219.06;5115348;28;20031;-35
2023/03/05 01:26:28;;;;;;;7.63;2.22;;;;;;;4.19;100.00;102206.44;5115942;28;20023;-35
2023/03/05 01:28:54;;;;;;;7.45;2.45;;;;;;;4.24;100.00;102207.66;5115570;28;20371;-36
2023/03/05 01:31:19;;;;;;;5.57;2.00;;;;;;;4.19;100.00;102185.84;5116109;28;20035;-35
2023/03/05 01:33:45;;;;;;;6.43;2.20;;;;;;;4.23;100.00;102195.25;5115185;28;20024;-35
2023/03/05 01:36:14;;;;;;;6.20;1.85;;;;;;;4.24;100.00;102191.59;5115454;28;20019;-36
2023/03/05 01:38:41;;;;;;;8.98;2.65;;;;;;;4.16;100.00;102182.69;5115633;28;20034;-36
2023/03/05 01:41:08;;;;;;;8.57;2.97;;;;;;;4.21;100.00;102189.25;5115359;28;20015;-36
2023/03/05 01:43:33;;;;;;;9.43;2.95;;;;;;;4.23;100.00;102183.72;5115266;27;20130;-35
2023/03/05 01:46:30;;;;;;;7.20;2.43;;;;;;;4.24;100.00;102182.72;5115578;28;20102;-35
2023/03/05 01:49:02;;;;;;;6.93;2.20;;;;;;;4.11;100.00;102159.03;5115154;28;20257;-35
2023/03/05 01:51:35;;;;;;;7.85;2.08;;;;;;;4.08;100.00;102162.84;5115422;28;20057;-36
2023/03/05 01:54:05;;;;;;;5.72;2.22;;;;;;;4.17;100.00;102171.81;5115425;28;20351;-35
2023/03/05 01:56:30;;;;;;;8.75;2.30;;;;;;;4.14;100.00;102159.56;5115108;28;20015;-36
2023/03/05 01:59:02;;;;;;;6.63;2.05;;;;;;;4.15;100.00;102163.09;5115559;28;20034;-36
2023/03/05 02:01:30;;;;;;;5.85;1.90;;;;;;;4.16;100.00;102163.94;5114782;28;20040;-36
2023/03/05 02:03:55;;;;;;;7.35;2.13;;;;;;;4.12;100.00;102158.88;5114965;28;20019;-36
2023/03/05 02:06:21;;;;;;;5.70;1.90;;;;;;;4.04;100.00;102136.56;5115256;28;20035;-36
2023/03/05 02:08:46;;;;;;;6.18;1.98;;;;;;;4.13;100.00;102144.50;5115392;28;20019;-36
2023/03/05 02:11:12;;;;;;;6.23;2.00;;;;;;;4.12;100.00;102155.38;5115173;27;20039;-36
2023/03/05 02:13:39;;;;;;;4.93;1.50;;;;;;;4.11;100.00;102140.31;5115122;28;20371;-35
2023/03/05 02:16:06;;;;;;;5.60;1.52;;;;;;;4.10;100.00;102138.63;5115072;28;20102;-36
2023/03/05 02:18:32;;;;;;;7.35;2.05;;;;;;;4.09;100.00;102139.59;5113337;28;20452;-35
2023/03/05 02:20:57;;;;;;;6.15;1.90;;;;;;;4.05;100.00;102133.75;5114743;28;20027;-35
2023/03/05 02:23:25;;;;;;;5.30;1.80;;;;;;;4.00;100.00;102121.81;5114509;28;20451;-35
2023/03/05 02:25:50;;;;;;;7.88;1.83;;;;;;;4.03;100.00;102127.69;5115002;28;20073;-35
2023/03/05 02:28:22;;;;;;;4.65;1.55;;;;;;;4.01;100.00;102115.47;5114409;28;20367;-35
2023/03/05 02:30:47;;;;;;;6.90;1.80;;;;;;;4.08;100.00;102124.56;5113967;28;20355;-35
2023/03/05 02:33:14;;;;;;;6.00;1.70;;;;;;;4.02;100.00;102104.59;5114010;28;20110;-35
2023/03/05 02:35:40;;;;;;;4.95;1.60;;;;;;;4.09;100.00;102121.69;5114326;28;20034;-35
2023/03/05 02:38:05;;;;;;;5.82;2.15;;;;;;;4.07;100.00;102115.69;5113836;28;20455;-35
2023/03/05 02:40:31;;;;;;;4.60;1.50;;;;;;;4.03;100.00;102103.59;5114572;28;20027;-35
2023/03/05 02:42:56;;;;;;;5.97;1.50;;;;;;;4.07;100.00;102112.16;5114369;28;20089;-35
2023/03/05 02:45:21;;;;;;;6.70;2.10;;;;;;;4.06;100.00;102107.81;5114386;28;20023;-35
2023/03/05 02:47:47;;;;;;;4.50;1.70;;;;;;;4.02;100.00;102101.09;5113957;28;20371;-35
2023/03/05 02:50:12;;;;;;;6.97;1.87;;;;;;;3.99;100.00;102104.06;5114280;28;20038;-35
2023/03/05 02:52:39;;;;;;;7.10;2.03;;;;;;;3.93;100.00;102083.28;5114521;28;20261;-35
2023/03/05 02:55:05;;;;;;;8.73;2.28;;;;;;;3.92;100.00;102092.31;5113858;28;20165;-35
2023/03/05 02:57:30;;;;;;;6.70;1.85;;;;;;;3.91;100.00;102088.81;5114412;28;20028;-35
2023/03/05 02:59:55;;;;;;;7.33;1.70;;;;;;;3.92;100.00;102093.16;5114446;28;20023;-35
2023/03/05 03:02:21;;;;;;;9.87;2.07;;;;;;;3.86;100.00;102077.75;5114246;28;20535;-35
2023/03/05 03:04:46;;;;;;;6.00;1.67;;;;;;;3.79;100.00;102074.84;5113473;28;20035;-35
2023/03/05 03:07:13;;;;;;;5.93;2.00;;;;;;;3.73;100.00;102070.13;5113751;28;20020;-35
2023/03/05 03:09:39;;;;;;;7.22;2.40;;;;;;;3.71;100.00;102073.94;5114166;28;20016;-35
2023/03/05 03:12:05;;;;;;;7.60;2.00;;;;;;;3.70;100.00;102069.59;5114069;28;20028;-35
2023/03/05 03:14:38;;;;;;;;;;;;;;;3.74;100.00;102069.13;5114120;28;20459;-35
2023/03/05 03:17:11;;;;;;;3.72;1.40;;;;;;;3.62;100.00;102057.00;5113989;28;19972;-35
2023/03/05 03:19:38;;;;;;;5.28;1.85;;;;;;;3.61;100.00;102055.28;5114313;28;20023;-35
2023/03/05 03:22:05;;;;;;;7.68;1.80;;;;;;;3.48;100.00;102047.69;5113592;28;20051;-35
2023/03/05 03:24:31;;;;;;;6.30;1.75;;;;;;;3.46;100.00;102043.47;5114167;28;20347;-35
2023/03/05 03:26:56;;;;;;;;;;;;;;;3.52;100.00;102048.22;5114571;28;20126;-35
2023/03/05 03:29:22;;;;;;;6.97;1.87;;;;;;;3.42;100.00;102036.78;5114372;28;20320;-35
2023/03/05 03:31:47;;;;;;;6.07;1.90;;;;;;;3.45;100.00;102036.47;5114114;28;20262;-35
2023/03/05 03:34:14;;;;;;;7.65;1.70;;;;;;;3.51;100.00;102044.69;5114130;28;20367;-35
2023/03/05 03:36:40;;;;;;;5.63;1.80;;;;;;;3.51;100.00;102043.84;5113469;28;20459;-35
2023/03/05 03:39:08;;;;;;;5.63;1.70;;;;;;;3.48;100.00;102038.84;5113766;28;20447;-35
2023/03/05 03:41:34;;;;;;;5.00;1.55;;;;;;;3.52;100.00;102042.88;5113598;28;20048;-35
2023/03/05 03:44:01;;;;;;;7.53;2.15;;;;;;;3.51;100.00;102033.16;5114586;28;20027;-35
2023/03/05 03:46:26;;;;;;;4.70;2.03;;;;;;;3.53;100.00;102040.03;5113962;28;20020;-35
2023/03/05 03:48:52;;;;;;;4.33;1.80;;;;;;;3.52;100.00;102032.19;5116253;28;20026;-35
2023/03/05 03:51:17;;;;;;;4.90;1.80;;;;;;;3.50;100.00;102024.28;5117873;28;20023;-35
2023/03/05 03:53:42;;;;;;;5.37;2.00;;;;;;;3.53;100.00;102028.50;5118119;27;20023;-35
2023/03/05 03:56:08;;;;;;;8.43;2.73;;;;;;;3.51;100.00;102019.78;5118050;28;20015;-35
2023/03/05 03:58:33;;;;;;;6.50;2.20;;;;;;;3.54;100.00;102024.84;5117434;28;20020;-35
2023/03/05 04:00:59;;;;;;;6.77;2.23;;;;;;;3.53;100.00;102028.50;5117303;28;20032;-35
2023/03/05 04:03:24;;;;;;;7.37;2.20;;;;;;;3.51;100.00;102020.63;5117977;28;20367;-35
2023/03/05 04:05:49;;;;;;;8.73;2.23;;;;;;;3.47;100.00;102013.09;5117597;28;20508;-35
2023/03/05 04:08:15;;;;;;;5.17;2.07;;;;;;;3.52;100.00;102016.97;5118029;28;20028;-35
2023/03/05 04:10:40;;;;;;;7.07;2.23;;;;;;;3.54;100.00;102009.63;5117948;28;20050;-35
2023/03/05 04:13:05;;;;;;;5.93;2.20;;;;;;;3.53;100.00;102012.47;5117155;28;20031;-35
2023/03/05 04:15:32;;;;;;;8.43;2.37;;;;;;;3.48;100.00;101993.38;5117930;28;20028;-35
2023/03/05 04:17:57;;;;;;;5.65;2.10;;;;;;;3.55;100.00;101997.09;5117041;27;20273;-35
2023/03/05 04:20:22;;;;;;;9.87;2.50;;;;;;;3.53;100.00;101996.41;5117577;28;20023;-35
2023/03/05 04:22:48;;;;;;;4.73;1.80;;;;;;;3.45;100.00;101981.13;5116590;28;20031;-35
2023/03/05 04:25:13;;;;;;;5.97;2.17;;;;;;;3.41;100.00;101977.09;5116579;28;20024;-35
2023/03/05 04:27:39;;;;;;;7.53;2.07;;;;;;;3.52;100.00;101995.56;5116812;28;20036;-35
2023/03/05 04:30:05;;;;;;;9.70;2.53;;;;;;;3.51;100.00;101993.03;5116805;28;20257;-36
2023/03/05 04:32:31;;;;;;;7.57;2.40;;;;;;;3.50;100.00;101983.34;5116637;28;20035;-35
2023/03/05 04:34:56;;;;;;;9.90;2.53;;;;;;;3.46;100.00;101985.47;5117297;28;20023;-35
2023/03/05 04:37:23;;;;;;;6.10;2.97;;;;;;;3.48;100.00;101982.66;5116584;28;20732;-35
2023/03/05 04:39:49;;;;;;;7.43;2.40;;;;;;;3.48;100.00;101982.66;5116642;28;20024;-35
2023/03/05 04:42:15;;;;;;;;;;;;;;;3.57;100.00;101989.75;5116904;28;20031;-35
2023/03/05 04:44:40;;;;;;;7.40;2.13;;;;;;;3.48;100.00;101977.31;5116807;28;19930;-35
2023/03/05 04:47:05;;;;;;;7.70;2.57;;;;;;;3.50;100.00;101975.31;5117017;28;20024;-35
2023/03/05 04:49:31;;;;;;;6.77;2.50;;;;;;;3.44;100.00;101976.78;5116444;28;20026;-35
2023/03/05 04:51:56;;;;;;;6.53;2.10;;;;;;;3.52;100.00;101986.72;5116109;28;20031;-35
2023/03/05 04:54:22;;;;;;;6.83;2.00;;;;;;;3.46;100.00;101974.78;5116328;28;20025;-35
2023/03/05 04:56:48;;;;;;;;;;;;;;;3.57;100.00;101976.38;5116967;28;20024;-35
2023/03/05 04:59:13;;;;;;;7.30;2.05;;;;;;;3.50;100.00;101976.16;5116061;28;19953;-35
2023/03/05 05:01:39;;;;;;;7.53;2.35;;;;;;;3.42;100.00;101956.56;5116618;28;20092;-35
2023/03/05 05:04:04;;;;;;;7.53;2.17;;;;;;;3.47;100.00;101965.78;5116341;28;20038;-35
2023/03/05 05:06:30;;;;;;;9.17;2.77;;;;;;;3.47;100.00;101967.63;5116001;28;20336;-35
2023/03/05 05:08:55;;;;;;;7.73;2.20;;;;;;;3.47;100.00;101964.97;5116157;28;20080;-35
2023/03/05 05:11:20;;;;;;;8.07;2.83;;;;;;;3.47;100.00;101960.44;5116181;28;20031;-36
2023/03/05 05:13:46;;;;;;;8.63;2.43;;;;;;;3.46;100.00;101953.41;5115667;28;20107;-36
2023/03/05 05:16:11;;;;;;;5.57;2.80;;;;;;;3.49;100.00;101944.22;5115974;28;20026;-36
2023/03/05 05:18:37;;;;;;;8.40;2.95;;;;;;;3.49;100.00;101952.25;5115907;28;20049;-36
2023/03/05 05:21:06;;;;;;;9.70;3.23;;;;;;;3.45;100.00;101953.56;5116641;28;20347;-35
2023/03/05 05:23:32;;;;;;;7.20;2.97;;;;;;;3.41;100.00;101949.53;5115965;28;20107;-35
2023/03/05 05:26:01;;;;;;;11.70;3.73;;;;;;;3.41;100.00;101938.81;5116601;28;20051;-35
2023/03/05 05:28:27;;;;;;;7.80;3.30;;;;;;;3.44;100.00;101949.22;5115677;28;20269;-36
2023/03/05 05:30:53;;;;;;;;;;;;;;;3.51;100.00;101945.75;5116619;28;20028;-36
2023/03/05 05:33:20;;;;;;;9.43;3.17;;;;;;;3.45;100.00;101949.03;5115281;28;19907;-35
2023/03/05 05:35:45;;;;;;;;;;;;;;;3.54;100.00;101949.94;5116034;28;20033;-36
2023/03/05 05:38:10;;;;;;;8.90;3.03;;;;;;;3.47;100.00;101947.06;5115700;28;19903;-35
2023/03/05 05:40:35;;;;;;;6.73;3.07;;;;;;;3.48;100.00;101943.41;5115189;28;20254;-36
2023/03/05 05:43:01;;;;;;;8.73;3.30;;;;;;;3.47;100.00;101938.22;5115329;28;20024;-35
2023/03/05 05:45:26;;;;;;;5.13;2.97;;;;;;;3.46;100.00;101941.84;5115363;28;20055;-35
2023/03/05 05:47:52;;;;;;;7.87;3.63;;;;;;;3.38;100.00;101928.47;5114968;27;20020;-35
2023/03/05 05:50:19;;;;;;;9.73;3.87;;;;;;;3.47;100.00;101938.22;5115233;28;20072;-35
2023/03/05 05:52:44;;;;;;;5.93;3.40;;;;;;;3.37;100.00;101916.94;5114920;28;20395;-35
2023/03/05 05:55:10;;;;;;;10.37;4.17;;;;;;;3.45;100.00;101930.31;5115724;28;20028;-35
2023/03/05 05:57:36;;;;;;;9.55;3.97;;;;;;;3.46;100.00;101932.00;5115096;28;20030;-35
2023/03/05 06:00:07;;;;;;;6.68;3.63;;;;;;;3.40;100.00;101921.94;5115365;28;20030;-35
2023/03/05 06:02:32;;;;;;;11.00;4.15;;;;;;;3.46;100.00;101937.34;5114972;28;20059;-35
2023/03/05 06:04:58;;;;;;;10.90;4.75;;;;;;;3.46;100.00;101937.34;5114996;28;20020;-36
2023/03/05 06:07:23;;;;;;;8.70;3.43;;;;;;;3.47;100.00;101930.19;5115182;28;20107;-36
2023/03/05 06:09:48;;;;;;;7.60;3.93;;;;;;;3.45;100.00;101932.16;5115680;28;20351;-36
2023/03/05 06:12:14;;;;;;;9.97;4.33;;;;;;;3.48;100.00;101937.22;5114717;28;20118;-36
2023/03/05 06:14:39;;;;;;;5.07;3.53;;;;;;;3.46;100.00;101925.81;5115388;28;20023;-36
2023/03/05 06:17:04;;;;;;;9.43;5.37;;;;;;;3.41;100.00;101918.25;5115305;28;20051;-36
2023/03/05 06:19:31;;;;;;;7.20;3.63;;;;;;;3.41;100.00;101912.09;5114457;28;20016;-36
2023/03/05 06:21:57;;;;;;;10.90;4.13;;;;;;;3.44;100.00;101917.13;5115080;28;20037;-36
2023/03/05 06:24:22;;;;;;;10.07;5.65;;;;;;;3.46;100.00;101917.78;5114598;28;20015;-36
2023/03/05 06:26:48;;;;;;;8.13;4.27;;;;;;;3.41;100.00;101918.25;5114573;28;20027;-35
2023/03/05 06:29:14;;;;;;;6.73;4.17;;;;;;;3.42;100.00;101919.97;5114615;28;20141;-35
2023/03/05 06:31:39;;;;;;;9.30;4.38;;;;;;;3.42;100.00;101913.78;5114471;27;20072;-35
2023/03/05 06:34:04;;;;;;;9.83;4.43;;;;;;;3.33;100.00;101900.34;5114807;28;20464;-35
2023/03/05 06:36:30;;;;;;;7.10;4.50;;;;;;;3.39;100.00;101908.75;5114715;28;20011;-35
2023/03/05 06:38:56;;;;;;;6.80;3.97;;;;;;;3.41;100.00;101917.44;5114458;28;20046;-35
2023/03/05 06:41:28;;;;;;;6.57;3.97;;;;;;;3.41;100.00;101912.09;5114275;28;20022;-35
2023/03/05 06:43:55;;;;;;;8.13;4.63;;;;;;;3.33;100.00;101905.69;5114338;28;20034;-35
2023/03/05 06:46:24;;;;;;;12.85;4.53;;;;;;;3.39;100.00;101914.09;5114877;28;20332;-35
2023/03/05 06:48:51;;;;;;;9.00;4.53;;;;;;;3.41;100.00;101914.75;5113980;28;20381;-35
2023/03/05 06:51:23;;;;;;;6.90;4.18;;;;;;;3.41;100.00;101912.91;5115091;28;20028;-35
2023/03/05 06:53:49;;;;;;;6.53;3.85;;;;;;;3.44;100.00;101909.09;5114015;28;20104;-35
2023/03/05 06:56:15;;;;;;;;;;;;;;;3.49;100.00;101912.13;5114297;28;20031;-35
2023/03/05 06:58:45;;;;;;;8.25;4.35;;;;;;;3.43;100.00;101905.59;5114151;28;19956;-35
2023/03/05 07:01:10;;;;;;;7.55;4.38;;;;;;;3.43;100.00;101902.09;5114526;28;20161;-35
2023/03/05 07:03:37;;;;;;;7.43;4.10;;;;;;;3.50;100.00;101906.63;5114654;28;20114;-35
2023/03/05 07:06:03;;;;;;;9.27;4.82;;;;;;;3.48;100.00;101913.16;5114165;28;20043;-35
2023/03/05 07:08:29;;;;;;;8.73;4.90;;;;;;;3.48;100.00;101902.44;5113675;28;20019;-36
2023/03/05 07:10:55;;;;;;;7.20;4.97;;;;;;;3.52;100.00;101910.00;5114138;28;20176;-36
2023/03/05 07:13:20;;;;;;;7.23;4.40;;;;;;;3.57;100.00;101914.88;5114313;28;20094;-44
2023/03/05 07:15:45;;;;;;;6.87;4.47;;;;;;;3.56;100.00;101910.50;5114279;28;20050;-36
2023/03/05 07:18:11;;;;;;;7.40;4.73;;;;;;;3.58;100.00;101906.69;5113691;28;20045;-36
2023/03/05 07:20:36;;;;;;;16.30;5.23;;;;;;;3.61;100.00;101908.19;5113893;28;20030;-36
2023/03/05 07:23:03;;;;;;;6.05;4.32;;;;;;;3.61;100.00;101900.16;5114879;28;20063;-36
2023/03/05 07:25:28;;;;;;;6.78;4.35;;;;;;;3.67;100.00;101896.03;5118558;28;20424;-36
2023/03/05 07:27:54;;;;;;;6.28;3.80;;;;;;;3.71;100.00;101903.56;5118517;28;20062;-36
2023/03/05 07:30:20;;;;;;;8.13;4.37;;;;;;;3.73;100.00;101896.22;5118262;28;20023;-36
2023/03/05 07:32:45;;;;;;;8.30;4.55;;;;;;;3.76;100.00;101898.59;5117096;28;20387;-36
2023/03/05 07:35:10;;;;;;;7.85;4.22;;;;;;;3.77;100.00;101899.41;5116536;28;20043;-36
2023/03/05 07:37:36;;;;;;;8.07;3.90;;;;;;;3.79;100.00;101900.09;5117682;28;20076;-36
2023/03/05 07:40:03;;;;;;;7.50;4.70;;;;;;;3.83;100.00;101898.75;5117605;28;20051;-36
2023/03/05 07:42:28;;;;;;;4.70;3.75;;;;;;;3.85;100.00;101894.06;5118109;28;20076;-36
2023/03/05 07:44:55;;;;;;;6.03;3.97;;;;;;;3.86;100.00;101904.66;5117911;28;20024;-36
2023/03/05 07:47:22;;;;;;;6.32;4.15;;;;;;;3.80;100.00;101886.53;5117475;28;20277;-36
2023/03/05 07:49:48;;;;;;;5.82;3.83;;;;;;;3.79;100.00;101884.88;5117179;28;20619;-36
2023/03/05 07:52:14;;;;;;;6.93;3.75;;;;;;;3.90;100.00;101896.28;5117372;28;20372;-36
2023/03/05 07:54:39;;;;;;;6.32;3.55;;;;;;;3.88;100.00;101889.25;5117627;28;20024;-36
2023/03/05 07:57:06;;;;;;;6.25;3.35;;;;;;;3.94;100.00;101885.09;5116325;28;20048;-36
2023/03/05 07:59:32;;;;;;;7.30;3.65;;;;;;;3.96;100.00;101879.59;5117839;28;20050;-36
2023/03/05 08:01:57;;;;;;;7.53;3.70;;;;;;;4.06;100.00;101896.34;5116622;28;20047;-36
2023/03/05 08:04:23;;;;;;;8.77;2.90;;;;;;;3.96;100.00;101880.44;5117234;28;20028;-36
2023/03/05 08:06:48;;;;;;;6.85;3.00;;;;;;;4.02;100.00;101886.97;5117287;28;20016;-36
2023/03/05 08:09:15;;;;;;;5.73;3.40;;;;;;;4.03;100.00;101884.13;5117241;28;20023;-36
2023/03/05 08:11:40;;;;;;;;;;;;;;;4.14;100.00;101886.47;5117613;27;20027;-36
2023/03/05 08:14:05;;;;;;;6.43;3.27;;;;;;;4.12;100.00;101885.81;5117726;28;20259;-36
2023/03/05 08:16:31;;;;;;;8.73;2.90;;;;;;;3.94;100.00;101846.78;5117764;28;20297;-36
2023/03/05 08:18:58;;;;;;;4.13;2.80;;;;;;;4.12;100.00;101876.97;5117037;28;20103;-36
2023/03/05 08:21:29;;;;;;;5.82;3.08;;;;;;;4.12;100.00;101876.97;5117006;28;20061;-36
2023/03/05 08:23:56;;;;;;;4.93;2.90;;;;;;;4.16;100.00;101875.63;5117813;28;20051;-36
2023/03/05 08:26:25;;;;;;;4.00;2.67;;;;;;;4.18;100.00;101872.78;5116703;28;20024;-36
2023/03/05 08:28:50;;;;;;;4.75;2.42;;;;;;;4.14;100.00;101861.56;5117138;28;20038;-36
2023/03/05 08:31:18;;;;;;;5.82;3.58;;;;;;;4.20;100.00;101858.25;5116616;28;20027;-36
2023/03/05 08:33:43;;;;;;;5.07;2.53;;;;;;;4.39;100.00;101867.78;5116823;28;20047;-35
2023/03/05 08:36:09;;;;;;;3.93;2.13;;;;;;;4.44;100.00;101860.13;5116787;28;20050;-35
2023/03/05 08:38:35;;;;;;;3.72;2.30;;;;;;;4.49;100.00;101855.09;5116757;28;20031;-35
2023/03/05 08:41:01;;;;;;;7.88;3.30;;;;;;;4.55;100.00;101854.44;5116598;28;20023;-35
2023/03/05 08:43:26;;;;;;;3.97;2.20;;;;;;;4.66;100.00;101855.94;5116565;28;20019;-35
2023/03/05 08:45:54;;;;;;;4.10;2.05;;;;;;;4.72;100.00;101843.69;5116570;28;20072;-35
2023/03/05 08:48:20;;;;;;;5.10;2.20;;;;;;;4.76;100.00;101851.25;5116183;28;20095;-35
2023/03/05 08:50:45;;;;;;;4.90;1.90;;;;;;;4.71;100.00;101823.28;5116303;28;20487;-35
2023/03/05 08:53:11;;;;;;;4.05;1.90;;;;;;;4.88;100.00;101849.91;5116352;28;20024;-35
2023/03/05 08:55:37;;;;;;;2.40;1.50;;;;;;;4.99;100.00;101845.19;5116915;28;20118;-36
2023/03/05 08:58:03;;;;;;;2.80;1.70;;;;;;;5.00;100.00;101846.88;5116007;28;20016;-35
2023/03/05 09:00:28;;;;;;;3.63;1.70;;;;;;;5.00;100.00;101838.81;5115943;28;20110;-35
2023/03/05 09:02:53;;;;;;;3.57;1.43;;;;;;;4.97;100.00;101837.31;5116054;28;20076;-36
2023/03/05 09:05:19;;;;;;;4.23;1.63;;;;;;;5.03;100.00;101827.78;5116181;28;20355;-35
2023/03/05 09:07:44;;;;;;;3.10;1.43;;;;;;;5.06;100.00;101825.56;5116038;28;20024;-35
2023/03/05 09:10:12;;;;;;;3.90;1.60;;;;;;;5.05;100.00;101809.66;5116332;28;20257;-35
2023/03/05 09:12:38;;;;;;;3.00;1.38;;;;;;;5.07;100.00;101826.41;5116242;28;20072;-36
2023/03/05 09:15:08;;;;;;;5.93;1.85;;;;;;;4.95;100.00;101803.66;5115966;28;20023;-36
2023/03/05 09:17:35;;;;;;;3.67;1.30;;;;;;;5.05;100.00;101820.38;5115584;28;20096;-35
2023/03/05 09:20:02;;;;;;;3.85;1.38;;;;;;;5.10;100.00;101821.53;5116706;28;20328;-36
2023/03/05 09:22:28;;;;;;;2.17;1.13;;;;;;;5.09;100.00;101819.88;5115727;27;20023;-35
2023/03/05 09:24:54;;;;;;;4.13;1.23;;;;;;;5.22;100.00;101815.81;5115508;28;20027;-36
2023/03/05 09:27:19;;;;;;;3.47;1.10;;;;;;;5.27;100.00;101816.13;5114929;28;20030;-37
2023/03/05 09:29:45;;;;;;;3.47;1.20;;;;;;;5.37;100.00;101812.25;5115776;28;20077;-35
2023/03/05 09:32:10;;;;;;;3.13;1.13;;;;;;;5.41;100.00;101821.59;5115620;28;20367;-35
2023/03/05 09:34:35;;;;;;;2.47;1.10;;;;;;;5.45;100.00;101815.91;5115590;28;20027;-36
2023/03/05 09:37:02;;;;;;;2.37;0.90;;;;;;;5.34;100.00;101792.97;5115521;28;20019;-36
2023/03/05 09:39:27;;;;;;;3.83;1.45;;;;;;;5.27;100.00;101789.31;5115772;28;20047;-36
2023/03/05 09:41:53;;;;;;;2.67;0.90;;;;;;;5.34;100.00;101795.66;5115140;28;20059;-36
2023/03/05 09:44:27;;;;;;;3.53;1.57;;;;;;;5.39;100.00;101801.34;5115476;28;20115;-41
2023/03/05 09:47:02;;;;;;;2.45;0.90;;;;;;;5.34;100.00;101788.44;5113870;28;20114;-37
2023/03/05 09:49:44;;;;;;;2.83;0.90;;;;;;;5.38;100.00;101795.16;5115830;28;20030;-36
2023/03/05 09:52:45;;;;;;;2.75;0.82;;;;;;;5.38;100.00;101797.81;5115781;28;20085;-36
2023/03/05 09:55:24;;;;;;;3.25;1.02;;;;;;;5.37;100.00;101790.81;5115259;28;20099;-36
2023/03/05 09:57:54;;;;;;;1.30;0.68;;;;;;;5.42;100.00;101796.47;5115380;28;20024;-36
2023/03/05 10:00:34;;;;;;;2.80;0.90;;;;;;;5.44;100.00;101793.63;5115920;28;20035;-36
2023/03/05 10:03:23;;;;;;;1.75;0.70;;;;;;;5.48;100.00;101784.22;5114690;28;20050;-36
2023/03/05 10:06:11;;;;;;;3.72;1.05;;;;;;;5.60;100.00;101779.28;5114051;28;20482;-36
2023/03/05 10:08:45;;;;;;;3.50;0.80;;;;;;;5.68;100.00;101788.13;5114952;28;20106;-36
2023/03/05 10:11:26;;;;;;;1.52;0.80;;;;;;;5.67;100.00;101780.28;5115371;28;20050;-35
2023/03/05 10:13:52;;;;;;;1.15;0.70;;;;;;;5.63;100.00;101781.63;5115406;28;20518;-35
2023/03/05 10:16:30;;;;;;;3.03;0.60;;;;;;;5.55;100.00;101774.44;5115096;28;20058;-36
2023/03/05 10:19:21;;;;;;;1.13;0.60;;;;;;;5.47;100.00;101758.41;5114709;28;20030;-35
2023/03/05 10:22:05;;;;;;;2.05;0.90;;;;;;;5.58;100.00;101770.59;5115180;28;20356;-36
2023/03/05 10:24:50;;;;;;;3.13;0.98;;;;;;;5.65;100.00;101768.84;5114496;28;20459;-36
2023/03/05 10:27:24;;;;;;;5.32;3.40;;;;;;;5.63;100.00;101754.78;5115384;28;20088;-36
2023/03/05 10:30:03;;;;;;;5.55;4.07;;;;;;;5.69;100.00;101759.44;5114367;28;20370;-36
2023/03/05 10:32:41;;;;;;;4.10;1.65;;;;;;;5.69;100.00;101762.97;5115055;28;20359;-35
2023/03/05 10:35:34;;;;;;;2.08;1.42;;;;;;;5.65;100.00;101756.28;5115381;28;20402;-35
2023/03/05 10:38:07;;;;;;;1.67;0.90;;;;;;;5.56;100.00;101757.34;5114689;28;20030;-35
2023/03/05 10:40:47;;;;;;;3.35;0.75;;;;;;;5.43;100.00;101746.34;5114384;27;20027;-36
2023/03/05 10:43:15;;;;;;;1.48;0.85;;;;;;;5.56;100.00;101756.50;5114400;27;20076;-35
2023/03/05 10:45:43;;;;;;;3.08;1.02;;;;;;;5.62;100.00;101753.13;5114295;28;20370;-36
2023/03/05 10:48:30;;;;;;;2.10;0.75;;;;;;;5.72;100.00;101756.41;5114872;28;20443;-36
2023/03/05 10:51:03;;;;;;;3.25;0.60;;;;;;;5.78;100.00;101749.50;5114844;28;20099;-36
2023/03/05 10:53:46;;;;;;;2.83;0.75;;;;;;;5.92;100.00;101741.56;5114466;28;20479;-36
2023/03/05 10:56:12;;;;;;;0.65;0.40;;;;;;;6.00;100.00;101739.81;5114101;28;20024;-36
2023/03/05 10:58:37;;;;;;;1.77;0.60;;;;;;;6.09;100.00;101736.88;5113801;28;20031;-36
2023/03/05 11:01:26;;;;;;;1.37;0.50;;;;;;;6.21;100.00;101734.63;5115002;28;20283;-37
2023/03/05 11:04:00;;;;;;;1.67;1.23;;;;;;;6.22;100.00;101725.53;5114286;28;20116;-37
2023/03/05 11:06:36;;;;;;;1.30;0.75;;;;;;;6.16;100.00;101723.59;5114915;28;20088;-36
2023/03/05 11:09:31;;;;;;;2.60;0.88;;;;;;;6.19;100.00;101723.22;5114376;28;20059;-35
2023/03/05 11:12:11;;;;;;;1.80;0.70;;;;;;;6.27;100.00;101722.31;5114373;28;20463;-36
2023/03/05 11:15:06;;;;;;;1.30;0.68;;;;;;;6.29;100.00;101726.47;5114585;28;20035;-36
2023/03/05 11:17:33;;;;;;;1.52;0.90;;;;;;;6.12;100.00;101690.06;5111494;28;20032;-36
2023/03/05 11:20:30;;;;;;;1.40;0.88;;;;;;;6.32;99.70;101709.19;5114164;28;20043;-36
2023/03/05 11:23:18;;;;;;;1.77;0.80;;;;;;;6.33;99.70;101702.78;5113889;28;20024;-36
2023/03/05 11:25:49;;;;;;;2.78;1.00;;;;;;;6.29;98.46;101694.25;5113884;28;20027;-35
2023/03/05 11:28:21;;;;;;;3.72;0.80;;;;;;;6.40;98.90;101676.88;5113876;28;20103;-36
2023/03/05 11:31:06;;;;;;;2.25;0.70;;;;;;;6.54;98.74;101691.31;5113780;28;20061;-37